sensor_id;sensor_type;location;lat;lon;timestamp;P1;durP1;ratioP1;P2;durP2;ratioP2
43124;SDS011;49182;50.788;7.318;2023-06-10T00:00:02;12.27;;;7.72;;
43124;SDS011;49182;50.788;7.318;2023-06-10T00:02:37;11.30;;;7.97;;
43124;SDS011;49182;50.788;7.318;2023-06-10T00:05:05;10.85;;;7.18;;
43124;SDS011;49182;50.788;7.318;2023-06-10T00:07:33;12.50;;;7.13;;
43124;SDS011;49182;50.788;7.318;2023-06-10T00:10:00;11.15;;;7.32;;
43124;SDS011;49182;50.788;7.318;2023-06-10T00:12:27;10.10;;;6.97;;
43124;SDS011;49182;50.788;7.318;2023-06-10T00:14:53;9.07;;;6.85;;
43124;SDS011;49182;50.788;7.318;2023-06-10T00:17:20;9.63;;;7.22;;
43124;SDS011;49182;50.788;7.318;2023-06-10T00:19:47;12.50;;;7.25;;
43124;SDS011;49182;50.788;7.318;2023-06-10T00:22:13;12.95;;;7.35;;
43124;SDS011;49182;50.788;7.318;2023-06-10T00:24:41;12.45;;;7.25;;
43124;SDS011;49182;50.788;7.318;2023-06-10T00:27:08;12.82;;;6.97;;
43124;SDS011;49182;50.788;7.318;2023-06-10T00:29:35;11.25;;;7.30;;
43124;SDS011;49182;50.788;7.318;2023-06-10T00:32:01;11.02;;;7.47;;
43124;SDS011;49182;50.788;7.318;2023-06-10T00:34:29;13.30;;;8.45;;
43124;SDS011;49182;50.788;7.318;2023-06-10T00:36:57;11.25;;;7.60;;
43124;SDS011;49182;50.788;7.318;2023-06-10T00:39:24;10.90;;;7.30;;
43124;SDS011;49182;50.788;7.318;2023-06-10T00:41:51;11.27;;;7.75;;
43124;SDS011;49182;50.788;7.318;2023-06-10T00:44:18;10.02;;;7.43;;
43124;SDS011;49182;50.788;7.318;2023-06-10T00:46:45;10.05;;;7.35;;
43124;SDS011;49182;50.788;7.318;2023-06-10T00:49:12;13.90;;;7.57;;
43124;SDS011;49182;50.788;7.318;2023-06-10T00:51:39;10.73;;;7.50;;
43124;SDS011;49182;50.788;7.318;2023-06-10T00:54:06;13.40;;;7.82;;
43124;SDS011;49182;50.788;7.318;2023-06-10T00:56:34;13.10;;;7.68;;
43124;SDS011;49182;50.788;7.318;2023-06-10T00:59:03;13.40;;;7.57;;
43124;SDS011;49182;50.788;7.318;2023-06-10T01:01:29;11.70;;;7.55;;
43124;SDS011;49182;50.788;7.318;2023-06-10T01:03:56;10.75;;;7.57;;
43124;SDS011;49182;50.788;7.318;2023-06-10T01:06:24;11.27;;;7.88;;
43124;SDS011;49182;50.788;7.318;2023-06-10T01:09:01;12.23;;;7.97;;
43124;SDS011;49182;50.788;7.318;2023-06-10T01:11:34;12.05;;;8.07;;
43124;SDS011;49182;50.788;7.318;2023-06-10T01:14:04;11.90;;;8.07;;
43124;SDS011;49182;50.788;7.318;2023-06-10T01:16:31;10.63;;;7.63;;
43124;SDS011;49182;50.788;7.318;2023-06-10T01:18:57;13.25;;;7.80;;
43124;SDS011;49182;50.788;7.318;2023-06-10T01:21:25;12.43;;;7.63;;
43124;SDS011;49182;50.788;7.318;2023-06-10T01:23:52;10.68;;;7.55;;
43124;SDS011;49182;50.788;7.318;2023-06-10T01:26:22;13.68;;;8.00;;
43124;SDS011;49182;50.788;7.318;2023-06-10T01:28:52;11.90;;;7.78;;
43124;SDS011;49182;50.788;7.318;2023-06-10T01:31:31;11.98;;;7.75;;
43124;SDS011;49182;50.788;7.318;2023-06-10T01:34:06;11.47;;;8.03;;
43124;SDS011;49182;50.788;7.318;2023-06-10T01:39:06;11.00;;;8.13;;
43124;SDS011;49182;50.788;7.318;2023-06-10T01:41:34;11.40;;;8.05;;
43124;SDS011;49182;50.788;7.318;2023-06-10T01:44:03;12.23;;;8.25;;
43124;SDS011;49182;50.788;7.318;2023-06-10T01:46:30;11.68;;;8.23;;
43124;SDS011;49182;50.788;7.318;2023-06-10T01:48:56;11.57;;;7.78;;
43124;SDS011;49182;50.788;7.318;2023-06-10T01:51:23;12.18;;;7.78;;
43124;SDS011;49182;50.788;7.318;2023-06-10T01:53:51;10.77;;;7.25;;
43124;SDS011;49182;50.788;7.318;2023-06-10T01:56:19;10.52;;;7.68;;
43124;SDS011;49182;50.788;7.318;2023-06-10T01:58:46;12.38;;;8.20;;
43124;SDS011;49182;50.788;7.318;2023-06-10T02:01:13;12.52;;;8.32;;
43124;SDS011;49182;50.788;7.318;2023-06-10T02:03:40;15.00;;;8.52;;
43124;SDS011;49182;50.788;7.318;2023-06-10T02:06:08;11.48;;;8.13;;
43124;SDS011;49182;50.788;7.318;2023-06-10T02:08:35;11.38;;;7.95;;
43124;SDS011;49182;50.788;7.318;2023-06-10T02:11:03;10.32;;;8.13;;
43124;SDS011;49182;50.788;7.318;2023-06-10T02:13:30;13.95;;;8.38;;
43124;SDS011;49182;50.788;7.318;2023-06-10T02:15:57;12.70;;;8.52;;
43124;SDS011;49182;50.788;7.318;2023-06-10T02:18:28;14.95;;;8.25;;
43124;SDS011;49182;50.788;7.318;2023-06-10T02:20:54;10.70;;;8.10;;
43124;SDS011;49182;50.788;7.318;2023-06-10T02:23:21;11.55;;;8.23;;
43124;SDS011;49182;50.788;7.318;2023-06-10T02:25:48;12.02;;;7.68;;
43124;SDS011;49182;50.788;7.318;2023-06-10T02:28:16;11.43;;;8.27;;
43124;SDS011;49182;50.788;7.318;2023-06-10T02:30:44;13.20;;;7.50;;
43124;SDS011;49182;50.788;7.318;2023-06-10T02:33:10;11.45;;;8.57;;
43124;SDS011;49182;50.788;7.318;2023-06-10T02:35:38;10.00;;;7.68;;
43124;SDS011;49182;50.788;7.318;2023-06-10T02:38:05;12.95;;;9.00;;
43124;SDS011;49182;50.788;7.318;2023-06-10T02:40:33;10.80;;;8.13;;
43124;SDS011;49182;50.788;7.318;2023-06-10T02:43:00;11.68;;;8.30;;
43124;SDS011;49182;50.788;7.318;2023-06-10T02:45:28;11.90;;;8.13;;
43124;SDS011;49182;50.788;7.318;2023-06-10T02:47:58;11.20;;;8.60;;
43124;SDS011;49182;50.788;7.318;2023-06-10T02:50:25;12.68;;;9.00;;
43124;SDS011;49182;50.788;7.318;2023-06-10T02:53:00;11.15;;;7.85;;
43124;SDS011;49182;50.788;7.318;2023-06-10T02:55:27;12.45;;;8.95;;
43124;SDS011;49182;50.788;7.318;2023-06-10T02:57:59;10.15;;;7.65;;
43124;SDS011;49182;50.788;7.318;2023-06-10T03:00:28;12.82;;;9.02;;
43124;SDS011;49182;50.788;7.318;2023-06-10T03:02:54;13.38;;;8.27;;
43124;SDS011;49182;50.788;7.318;2023-06-10T03:05:24;11.90;;;8.43;;
43124;SDS011;49182;50.788;7.318;2023-06-10T03:07:53;14.45;;;9.50;;
43124;SDS011;49182;50.788;7.318;2023-06-10T03:10:20;11.27;;;8.50;;
43124;SDS011;49182;50.788;7.318;2023-06-10T03:12:47;15.10;;;8.90;;
43124;SDS011;49182;50.788;7.318;2023-06-10T03:15:14;13.85;;;8.57;;
43124;SDS011;49182;50.788;7.318;2023-06-10T03:17:42;13.60;;;8.48;;
43124;SDS011;49182;50.788;7.318;2023-06-10T03:20:09;12.88;;;8.43;;
43124;SDS011;49182;50.788;7.318;2023-06-10T03:22:39;10.88;;;8.13;;
43124;SDS011;49182;50.788;7.318;2023-06-10T03:25:08;13.90;;;8.95;;
43124;SDS011;49182;50.788;7.318;2023-06-10T03:27:35;13.50;;;8.23;;
43124;SDS011;49182;50.788;7.318;2023-06-10T03:30:06;13.85;;;8.80;;
43124;SDS011;49182;50.788;7.318;2023-06-10T03:32:34;12.07;;;8.80;;
43124;SDS011;49182;50.788;7.318;2023-06-10T03:35:03;12.07;;;8.70;;
43124;SDS011;49182;50.788;7.318;2023-06-10T03:37:32;10.10;;;7.93;;
43124;SDS011;49182;50.788;7.318;2023-06-10T03:39:58;12.88;;;9.23;;
43124;SDS011;49182;50.788;7.318;2023-06-10T03:42:26;14.38;;;9.50;;
43124;SDS011;49182;50.788;7.318;2023-06-10T03:44:52;10.73;;;7.95;;
43124;SDS011;49182;50.788;7.318;2023-06-10T03:47:19;14.80;;;8.57;;
43124;SDS011;49182;50.788;7.318;2023-06-10T03:49:47;12.77;;;8.30;;
43124;SDS011;49182;50.788;7.318;2023-06-10T03:52:16;11.85;;;9.15;;
43124;SDS011;49182;50.788;7.318;2023-06-10T03:54:43;14.18;;;8.45;;
43124;SDS011;49182;50.788;7.318;2023-06-10T03:57:10;13.93;;;9.13;;
43124;SDS011;49182;50.788;7.318;2023-06-10T03:59:37;13.98;;;8.52;;
43124;SDS011;49182;50.788;7.318;2023-06-10T04:02:04;11.48;;;8.25;;
43124;SDS011;49182;50.788;7.318;2023-06-10T04:04:32;12.23;;;8.45;;
43124;SDS011;49182;50.788;7.318;2023-06-10T04:06:58;11.68;;;8.52;;
43124;SDS011;49182;50.788;7.318;2023-06-10T04:09:26;11.75;;;8.63;;
43124;SDS011;49182;50.788;7.318;2023-06-10T04:11:53;11.27;;;8.50;;
43124;SDS011;49182;50.788;7.318;2023-06-10T04:14:20;17.23;;;9.45;;
43124;SDS011;49182;50.788;7.318;2023-06-10T04:16:47;15.48;;;8.82;;
43124;SDS011;49182;50.788;7.318;2023-06-10T04:19:14;13.32;;;8.70;;
43124;SDS011;49182;50.788;7.318;2023-06-10T04:21:40;12.35;;;8.25;;
43124;SDS011;49182;50.788;7.318;2023-06-10T04:24:08;13.57;;;9.95;;
43124;SDS011;49182;50.788;7.318;2023-06-10T04:26:37;13.13;;;8.52;;
43124;SDS011;49182;50.788;7.318;2023-06-10T04:29:04;12.10;;;8.02;;
43124;SDS011;49182;50.788;7.318;2023-06-10T04:31:31;11.20;;;8.48;;
43124;SDS011;49182;50.788;7.318;2023-06-10T04:33:58;11.07;;;7.93;;
43124;SDS011;49182;50.788;7.318;2023-06-10T04:36:26;12.07;;;8.25;;
43124;SDS011;49182;50.788;7.318;2023-06-10T04:38:52;14.00;;;8.07;;
43124;SDS011;49182;50.788;7.318;2023-06-10T04:41:20;11.13;;;7.75;;
43124;SDS011;49182;50.788;7.318;2023-06-10T04:43:48;11.88;;;8.05;;
43124;SDS011;49182;50.788;7.318;2023-06-10T04:46:15;12.60;;;7.53;;
43124;SDS011;49182;50.788;7.318;2023-06-10T04:48:42;11.45;;;7.47;;
43124;SDS011;49182;50.788;7.318;2023-06-10T04:51:09;11.27;;;7.15;;
43124;SDS011;49182;50.788;7.318;2023-06-10T04:53:36;12.95;;;7.72;;
43124;SDS011;49182;50.788;7.318;2023-06-10T04:56:02;10.63;;;7.35;;
43124;SDS011;49182;50.788;7.318;2023-06-10T04:58:29;9.85;;;6.88;;
43124;SDS011;49182;50.788;7.318;2023-06-10T05:00:57;10.02;;;7.25;;
43124;SDS011;49182;50.788;7.318;2023-06-10T05:03:24;12.18;;;7.78;;
43124;SDS011;49182;50.788;7.318;2023-06-10T05:05:51;10.35;;;7.15;;
43124;SDS011;49182;50.788;7.318;2023-06-10T05:08:17;9.43;;;7.30;;
43124;SDS011;49182;50.788;7.318;2023-06-10T05:10:44;10.27;;;7.60;;
43124;SDS011;49182;50.788;7.318;2023-06-10T05:13:11;11.60;;;7.20;;
43124;SDS011;49182;50.788;7.318;2023-06-10T05:15:37;10.88;;;7.43;;
43124;SDS011;49182;50.788;7.318;2023-06-10T05:18:05;11.32;;;7.82;;
43124;SDS011;49182;50.788;7.318;2023-06-10T05:20:32;11.95;;;7.38;;
43124;SDS011;49182;50.788;7.318;2023-06-10T05:22:58;11.20;;;7.50;;
43124;SDS011;49182;50.788;7.318;2023-06-10T05:25:25;10.43;;;7.72;;
43124;SDS011;49182;50.788;7.318;2023-06-10T05:27:52;10.77;;;6.80;;
43124;SDS011;49182;50.788;7.318;2023-06-10T05:30:19;11.23;;;7.28;;
43124;SDS011;49182;50.788;7.318;2023-06-10T05:32:46;9.48;;;6.60;;
43124;SDS011;49182;50.788;7.318;2023-06-10T05:35:14;10.63;;;7.18;;
43124;SDS011;49182;50.788;7.318;2023-06-10T05:37:40;13.88;;;7.15;;
43124;SDS011;49182;50.788;7.318;2023-06-10T05:40:07;9.10;;;6.82;;
43124;SDS011;49182;50.788;7.318;2023-06-10T05:42:35;9.93;;;6.78;;
43124;SDS011;49182;50.788;7.318;2023-06-10T05:45:01;10.35;;;7.70;;
43124;SDS011;49182;50.788;7.318;2023-06-10T05:47:28;9.70;;;7.05;;
43124;SDS011;49182;50.788;7.318;2023-06-10T05:49:55;12.65;;;6.88;;
43124;SDS011;49182;50.788;7.318;2023-06-10T05:52:23;9.48;;;6.85;;
43124;SDS011;49182;50.788;7.318;2023-06-10T05:54:49;9.63;;;6.95;;
43124;SDS011;49182;50.788;7.318;2023-06-10T05:57:16;10.15;;;7.28;;
43124;SDS011;49182;50.788;7.318;2023-06-10T05:59:43;10.95;;;6.70;;
43124;SDS011;49182;50.788;7.318;2023-06-10T06:02:09;13.98;;;6.80;;
43124;SDS011;49182;50.788;7.318;2023-06-10T06:04:36;11.68;;;7.82;;
43124;SDS011;49182;50.788;7.318;2023-06-10T06:07:03;9.43;;;7.05;;
43124;SDS011;49182;50.788;7.318;2023-06-10T06:09:31;10.50;;;7.15;;
43124;SDS011;49182;50.788;7.318;2023-06-10T06:11:58;8.95;;;6.70;;
43124;SDS011;49182;50.788;7.318;2023-06-10T06:14:24;10.20;;;6.78;;
43124;SDS011;49182;50.788;7.318;2023-06-10T06:16:51;10.00;;;6.88;;
43124;SDS011;49182;50.788;7.318;2023-06-10T06:19:17;8.77;;;6.65;;
43124;SDS011;49182;50.788;7.318;2023-06-10T06:21:44;8.82;;;5.82;;
43124;SDS011;49182;50.788;7.318;2023-06-10T06:24:11;10.90;;;6.35;;
43124;SDS011;49182;50.788;7.318;2023-06-10T06:26:39;8.30;;;5.63;;
43124;SDS011;49182;50.788;7.318;2023-06-10T06:29:05;9.00;;;6.20;;
43124;SDS011;49182;50.788;7.318;2023-06-10T06:31:32;9.38;;;5.72;;
43124;SDS011;49182;50.788;7.318;2023-06-10T06:33:59;8.27;;;5.78;;
43124;SDS011;49182;50.788;7.318;2023-06-10T06:36:25;8.00;;;5.22;;
43124;SDS011;49182;50.788;7.318;2023-06-10T06:38:52;9.73;;;5.47;;
43124;SDS011;49182;50.788;7.318;2023-06-10T06:41:20;7.40;;;5.30;;
43124;SDS011;49182;50.788;7.318;2023-06-10T06:43:48;8.40;;;5.57;;
43124;SDS011;49182;50.788;7.318;2023-06-10T06:46:23;9.15;;;5.28;;
43124;SDS011;49182;50.788;7.318;2023-06-10T06:48:49;10.63;;;5.55;;
43124;SDS011;49182;50.788;7.318;2023-06-10T06:51:16;9.07;;;5.35;;
43124;SDS011;49182;50.788;7.318;2023-06-10T06:53:43;10.02;;;6.20;;
43124;SDS011;49182;50.788;7.318;2023-06-10T06:56:12;8.38;;;5.80;;
43124;SDS011;49182;50.788;7.318;2023-06-10T06:58:39;9.98;;;5.07;;
43124;SDS011;49182;50.788;7.318;2023-06-10T07:01:07;9.98;;;5.10;;
43124;SDS011;49182;50.788;7.318;2023-06-10T07:03:33;8.65;;;5.68;;
43124;SDS011;49182;50.788;7.318;2023-06-10T07:06:00;7.15;;;5.13;;
43124;SDS011;49182;50.788;7.318;2023-06-10T07:08:27;10.43;;;4.82;;
43124;SDS011;49182;50.788;7.318;2023-06-10T07:10:53;9.43;;;5.13;;
43124;SDS011;49182;50.788;7.318;2023-06-10T07:13:20;9.20;;;4.57;;
43124;SDS011;49182;50.788;7.318;2023-06-10T07:15:46;10.63;;;5.05;;
43124;SDS011;49182;50.788;7.318;2023-06-10T07:18:15;6.75;;;4.60;;
43124;SDS011;49182;50.788;7.318;2023-06-10T07:20:42;9.77;;;5.72;;
43124;SDS011;49182;50.788;7.318;2023-06-10T07:23:09;8.70;;;5.15;;
43124;SDS011;49182;50.788;7.318;2023-06-10T07:25:35;6.82;;;4.53;;
43124;SDS011;49182;50.788;7.318;2023-06-10T07:28:02;8.90;;;4.70;;
43124;SDS011;49182;50.788;7.318;2023-06-10T07:30:29;9.18;;;4.45;;
43124;SDS011;49182;50.788;7.318;2023-06-10T07:32:55;6.82;;;4.60;;
43124;SDS011;49182;50.788;7.318;2023-06-10T07:35:23;10.32;;;5.10;;
43124;SDS011;49182;50.788;7.318;2023-06-10T07:37:50;6.10;;;4.10;;
43124;SDS011;49182;50.788;7.318;2023-06-10T07:40:17;8.23;;;4.47;;
43124;SDS011;49182;50.788;7.318;2023-06-10T07:42:44;8.70;;;4.90;;
43124;SDS011;49182;50.788;7.318;2023-06-10T07:45:11;7.97;;;4.60;;
43124;SDS011;49182;50.788;7.318;2023-06-10T07:47:38;11.00;;;4.72;;
43124;SDS011;49182;50.788;7.318;2023-06-10T07:50:05;8.88;;;5.03;;
43124;SDS011;49182;50.788;7.318;2023-06-10T07:52:33;11.48;;;5.25;;
43124;SDS011;49182;50.788;7.318;2023-06-10T07:55:00;9.27;;;4.93;;
43124;SDS011;49182;50.788;7.318;2023-06-10T07:57:26;8.85;;;5.15;;
43124;SDS011;49182;50.788;7.318;2023-06-10T07:59:53;10.15;;;5.45;;
43124;SDS011;49182;50.788;7.318;2023-06-10T08:02:19;6.55;;;4.57;;
43124;SDS011;49182;50.788;7.318;2023-06-10T08:04:50;7.22;;;4.75;;
43124;SDS011;49182;50.788;7.318;2023-06-10T08:07:17;7.82;;;4.60;;
43124;SDS011;49182;50.788;7.318;2023-06-10T08:09:45;7.47;;;4.60;;
43124;SDS011;49182;50.788;7.318;2023-06-10T08:12:12;10.35;;;4.45;;
43124;SDS011;49182;50.788;7.318;2023-06-10T08:14:41;10.27;;;4.82;;
43124;SDS011;49182;50.788;7.318;2023-06-10T08:17:07;7.47;;;4.35;;
43124;SDS011;49182;50.788;7.318;2023-06-10T08:19:34;6.10;;;4.70;;
43124;SDS011;49182;50.788;7.318;2023-06-10T08:22:01;6.95;;;4.90;;
43124;SDS011;49182;50.788;7.318;2023-06-10T08:24:28;7.20;;;4.82;;
43124;SDS011;49182;50.788;7.318;2023-06-10T08:26:56;9.70;;;4.80;;
43124;SDS011;49182;50.788;7.318;2023-06-10T08:29:22;9.25;;;4.30;;
43124;SDS011;49182;50.788;7.318;2023-06-10T08:31:49;11.45;;;6.00;;
43124;SDS011;49182;50.788;7.318;2023-06-10T08:34:16;8.18;;;4.80;;
43124;SDS011;49182;50.788;7.318;2023-06-10T08:36:43;8.32;;;4.65;;
43124;SDS011;49182;50.788;7.318;2023-06-10T08:39:09;6.95;;;4.75;;
43124;SDS011;49182;50.788;7.318;2023-06-10T08:41:37;6.50;;;4.60;;
43124;SDS011;49182;50.788;7.318;2023-06-10T08:44:12;8.00;;;5.22;;
43124;SDS011;49182;50.788;7.318;2023-06-10T08:46:42;7.30;;;4.53;;
43124;SDS011;49182;50.788;7.318;2023-06-10T08:49:11;7.07;;;5.03;;
43124;SDS011;49182;50.788;7.318;2023-06-10T08:51:43;6.20;;;4.22;;
43124;SDS011;49182;50.788;7.318;2023-06-10T08:54:15;9.23;;;4.82;;
43124;SDS011;49182;50.788;7.318;2023-06-10T08:56:47;11.95;;;4.75;;
43124;SDS011;49182;50.788;7.318;2023-06-10T08:59:17;6.25;;;4.28;;
43124;SDS011;49182;50.788;7.318;2023-06-10T09:01:44;6.88;;;4.25;;
43124;SDS011;49182;50.788;7.318;2023-06-10T09:04:11;7.63;;;4.70;;
43124;SDS011;49182;50.788;7.318;2023-06-10T09:06:38;7.47;;;4.28;;
43124;SDS011;49182;50.788;7.318;2023-06-10T09:09:06;6.82;;;4.50;;
43124;SDS011;49182;50.788;7.318;2023-06-10T09:11:34;6.95;;;4.28;;
43124;SDS011;49182;50.788;7.318;2023-06-10T09:14:00;6.47;;;3.72;;
43124;SDS011;49182;50.788;7.318;2023-06-10T09:16:28;7.03;;;4.68;;
43124;SDS011;49182;50.788;7.318;2023-06-10T09:18:55;9.52;;;4.40;;
43124;SDS011;49182;50.788;7.318;2023-06-10T09:21:22;8.25;;;4.50;;
43124;SDS011;49182;50.788;7.318;2023-06-10T09:23:49;6.65;;;4.63;;
43124;SDS011;49182;50.788;7.318;2023-06-10T09:26:16;8.45;;;4.90;;
43124;SDS011;49182;50.788;7.318;2023-06-10T09:28:43;8.25;;;4.75;;
43124;SDS011;49182;50.788;7.318;2023-06-10T09:31:11;7.47;;;4.35;;
43124;SDS011;49182;50.788;7.318;2023-06-10T09:33:39;6.57;;;4.43;;
43124;SDS011;49182;50.788;7.318;2023-06-10T09:36:06;10.23;;;4.88;;
43124;SDS011;49182;50.788;7.318;2023-06-10T09:38:33;7.93;;;4.63;;
43124;SDS011;49182;50.788;7.318;2023-06-10T09:41:01;6.57;;;4.40;;
43124;SDS011;49182;50.788;7.318;2023-06-10T09:46:14;7.25;;;4.32;;
43124;SDS011;49182;50.788;7.318;2023-06-10T09:48:44;9.05;;;4.30;;
43124;SDS011;49182;50.788;7.318;2023-06-10T09:51:11;7.82;;;4.70;;
43124;SDS011;49182;50.788;7.318;2023-06-10T09:53:39;7.72;;;4.47;;
43124;SDS011;49182;50.788;7.318;2023-06-10T09:56:06;9.70;;;4.60;;
43124;SDS011;49182;50.788;7.318;2023-06-10T10:01:07;6.82;;;3.90;;
43124;SDS011;49182;50.788;7.318;2023-06-10T10:03:44;6.95;;;4.50;;
43124;SDS011;49182;50.788;7.318;2023-06-10T10:06:11;8.23;;;4.40;;
43124;SDS011;49182;50.788;7.318;2023-06-10T10:08:38;7.22;;;4.20;;
43124;SDS011;49182;50.788;7.318;2023-06-10T10:11:06;5.70;;;4.05;;
43124;SDS011;49182;50.788;7.318;2023-06-10T10:13:33;7.57;;;4.20;;
43124;SDS011;49182;50.788;7.318;2023-06-10T10:16:01;7.43;;;4.43;;
43124;SDS011;49182;50.788;7.318;2023-06-10T10:18:32;6.22;;;4.28;;
43124;SDS011;49182;50.788;7.318;2023-06-10T10:21:07;6.40;;;4.70;;
43124;SDS011;49182;50.788;7.318;2023-06-10T10:23:39;7.60;;;4.57;;
43124;SDS011;49182;50.788;7.318;2023-06-10T10:26:09;8.15;;;4.40;;
43124;SDS011;49182;50.788;7.318;2023-06-10T10:28:37;7.65;;;4.50;;
43124;SDS011;49182;50.788;7.318;2023-06-10T10:31:12;6.45;;;4.03;;
43124;SDS011;49182;50.788;7.318;2023-06-10T10:36:16;7.25;;;4.78;;
43124;SDS011;49182;50.788;7.318;2023-06-10T10:38:45;5.87;;;4.10;;
43124;SDS011;49182;50.788;7.318;2023-06-10T10:41:18;8.10;;;3.58;;
43124;SDS011;49182;50.788;7.318;2023-06-10T10:43:45;6.57;;;4.38;;
43124;SDS011;49182;50.788;7.318;2023-06-10T10:46:13;5.60;;;3.90;;
43124;SDS011;49182;50.788;7.318;2023-06-10T10:48:42;7.30;;;4.20;;
43124;SDS011;49182;50.788;7.318;2023-06-10T10:51:10;7.55;;;4.15;;
43124;SDS011;49182;50.788;7.318;2023-06-10T10:53:39;8.45;;;4.53;;
43124;SDS011;49182;50.788;7.318;2023-06-10T10:56:06;8.60;;;4.13;;
43124;SDS011;49182;50.788;7.318;2023-06-10T10:58:36;5.50;;;4.20;;
43124;SDS011;49182;50.788;7.318;2023-06-10T11:01:10;6.72;;;4.50;;
43124;SDS011;49182;50.788;7.318;2023-06-10T11:03:41;8.75;;;4.13;;
43124;SDS011;49182;50.788;7.318;2023-06-10T11:06:11;7.32;;;4.28;;
43124;SDS011;49182;50.788;7.318;2023-06-10T11:08:46;6.22;;;4.05;;
43124;SDS011;49182;50.788;7.318;2023-06-10T11:11:20;10.45;;;4.03;;
43124;SDS011;49182;50.788;7.318;2023-06-10T11:16:38;7.25;;;4.63;;
43124;SDS011;49182;50.788;7.318;2023-06-10T11:19:07;6.53;;;4.28;;
43124;SDS011;49182;50.788;7.318;2023-06-10T11:21:37;9.05;;;4.03;;
43124;SDS011;49182;50.788;7.318;2023-06-10T11:24:25;6.50;;;4.13;;
43124;SDS011;49182;50.788;7.318;2023-06-10T11:26:51;6.85;;;4.03;;
43124;SDS011;49182;50.788;7.318;2023-06-10T11:29:18;6.55;;;4.28;;
43124;SDS011;49182;50.788;7.318;2023-06-10T11:31:46;7.30;;;3.90;;
43124;SDS011;49182;50.788;7.318;2023-06-10T11:34:21;6.15;;;3.97;;
43124;SDS011;49182;50.788;7.318;2023-06-10T11:36:49;7.65;;;4.07;;
43124;SDS011;49182;50.788;7.318;2023-06-10T11:39:15;5.70;;;3.85;;
43124;SDS011;49182;50.788;7.318;2023-06-10T11:41:45;7.28;;;3.80;;
43124;SDS011;49182;50.788;7.318;2023-06-10T11:44:13;6.18;;;3.67;;
43124;SDS011;49182;50.788;7.318;2023-06-10T11:46:44;7.07;;;3.90;;
43124;SDS011;49182;50.788;7.318;2023-06-10T11:49:13;8.00;;;3.65;;
43124;SDS011;49182;50.788;7.318;2023-06-10T11:51:40;4.97;;;3.55;;
43124;SDS011;49182;50.788;7.318;2023-06-10T11:54:08;5.97;;;3.40;;
43124;SDS011;49182;50.788;7.318;2023-06-10T11:56:35;6.50;;;3.85;;
43124;SDS011;49182;50.788;7.318;2023-06-10T11:59:04;7.03;;;3.65;;
43124;SDS011;49182;50.788;7.318;2023-06-10T12:01:32;5.75;;;3.53;;
43124;SDS011;49182;50.788;7.318;2023-06-10T12:04:02;7.47;;;3.95;;
43124;SDS011;49182;50.788;7.318;2023-06-10T12:06:37;5.78;;;3.35;;
43124;SDS011;49182;50.788;7.318;2023-06-10T12:09:05;7.60;;;3.67;;
43124;SDS011;49182;50.788;7.318;2023-06-10T12:11:49;5.68;;;3.50;;
43124;SDS011;49182;50.788;7.318;2023-06-10T12:17:19;8.32;;;3.72;;
43124;SDS011;49182;50.788;7.318;2023-06-10T12:19:46;5.65;;;3.40;;
43124;SDS011;49182;50.788;7.318;2023-06-10T12:22:13;7.72;;;3.78;;
43124;SDS011;49182;50.788;7.318;2023-06-10T12:24:43;6.97;;;3.80;;
43124;SDS011;49182;50.788;7.318;2023-06-10T12:27:11;5.70;;;3.30;;
43124;SDS011;49182;50.788;7.318;2023-06-10T12:29:37;5.03;;;3.17;;
43124;SDS011;49182;50.788;7.318;2023-06-10T12:32:07;6.15;;;3.30;;
43124;SDS011;49182;50.788;7.318;2023-06-10T12:34:35;6.05;;;3.42;;
43124;SDS011;49182;50.788;7.318;2023-06-10T12:37:03;7.68;;;3.15;;
43124;SDS011;49182;50.788;7.318;2023-06-10T12:39:31;5.80;;;3.40;;
43124;SDS011;49182;50.788;7.318;2023-06-10T12:41:58;6.15;;;3.50;;
43124;SDS011;49182;50.788;7.318;2023-06-10T12:44:29;6.45;;;4.07;;
43124;SDS011;49182;50.788;7.318;2023-06-10T12:46:57;8.25;;;3.78;;
43124;SDS011;49182;50.788;7.318;2023-06-10T12:49:25;4.95;;;3.35;;
43124;SDS011;49182;50.788;7.318;2023-06-10T12:51:52;5.43;;;3.40;;
43124;SDS011;49182;50.788;7.318;2023-06-10T12:54:19;5.00;;;3.20;;
43124;SDS011;49182;50.788;7.318;2023-06-10T12:56:46;7.10;;;3.53;;
43124;SDS011;49182;50.788;7.318;2023-06-10T12:59:12;4.93;;;2.95;;
43124;SDS011;49182;50.788;7.318;2023-06-10T13:01:39;6.25;;;3.53;;
43124;SDS011;49182;50.788;7.318;2023-06-10T13:04:06;5.93;;;3.42;;
43124;SDS011;49182;50.788;7.318;2023-06-10T13:06:34;5.63;;;3.10;;
43124;SDS011;49182;50.788;7.318;2023-06-10T13:09:00;5.40;;;3.20;;
43124;SDS011;49182;50.788;7.318;2023-06-10T13:11:27;6.85;;;3.22;;
43124;SDS011;49182;50.788;7.318;2023-06-10T13:13:54;16.63;;;3.10;;
43124;SDS011;49182;50.788;7.318;2023-06-10T13:16:20;5.88;;;2.97;;
43124;SDS011;49182;50.788;7.318;2023-06-10T13:18:47;5.30;;;3.10;;
43124;SDS011;49182;50.788;7.318;2023-06-10T13:21:14;7.22;;;3.22;;
43124;SDS011;49182;50.788;7.318;2023-06-10T13:23:43;6.25;;;3.22;;
43124;SDS011;49182;50.788;7.318;2023-06-10T13:26:10;7.45;;;3.20;;
43124;SDS011;49182;50.788;7.318;2023-06-10T13:28:37;7.13;;;3.03;;
43124;SDS011;49182;50.788;7.318;2023-06-10T13:31:03;6.10;;;3.13;;
43124;SDS011;49182;50.788;7.318;2023-06-10T13:33:30;4.80;;;3.20;;
43124;SDS011;49182;50.788;7.318;2023-06-10T13:35:57;5.28;;;3.08;;
43124;SDS011;49182;50.788;7.318;2023-06-10T13:38:23;5.40;;;3.50;;
43124;SDS011;49182;50.788;7.318;2023-06-10T13:40:51;5.68;;;3.20;;
43124;SDS011;49182;50.788;7.318;2023-06-10T13:43:18;7.65;;;3.08;;
43124;SDS011;49182;50.788;7.318;2023-06-10T13:45:44;5.15;;;3.30;;
43124;SDS011;49182;50.788;7.318;2023-06-10T13:48:11;5.65;;;3.05;;
43124;SDS011;49182;50.788;7.318;2023-06-10T13:50:38;4.97;;;3.25;;
43124;SDS011;49182;50.788;7.318;2023-06-10T13:53:04;5.13;;;3.17;;
43124;SDS011;49182;50.788;7.318;2023-06-10T13:55:31;6.97;;;2.95;;
43124;SDS011;49182;50.788;7.318;2023-06-10T13:57:59;5.13;;;2.88;;
43124;SDS011;49182;50.788;7.318;2023-06-10T14:00:25;4.53;;;3.00;;
43124;SDS011;49182;50.788;7.318;2023-06-10T14:02:52;4.75;;;2.85;;
43124;SDS011;49182;50.788;7.318;2023-06-10T14:05:19;5.05;;;3.10;;
43124;SDS011;49182;50.788;7.318;2023-06-10T14:07:45;5.95;;;2.95;;
43124;SDS011;49182;50.788;7.318;2023-06-10T14:10:12;8.38;;;3.47;;
43124;SDS011;49182;50.788;7.318;2023-06-10T14:12:38;5.85;;;3.20;;
43124;SDS011;49182;50.788;7.318;2023-06-10T14:15:07;6.40;;;3.65;;
43124;SDS011;49182;50.788;7.318;2023-06-10T14:17:34;5.20;;;2.75;;
43124;SDS011;49182;50.788;7.318;2023-06-10T14:20:01;6.00;;;3.20;;
43124;SDS011;49182;50.788;7.318;2023-06-10T14:22:28;4.82;;;2.88;;
43124;SDS011;49182;50.788;7.318;2023-06-10T14:24:55;5.22;;;2.80;;
43124;SDS011;49182;50.788;7.318;2023-06-10T14:27:21;4.35;;;2.63;;
43124;SDS011;49182;50.788;7.318;2023-06-10T14:29:48;3.90;;;2.40;;
43124;SDS011;49182;50.788;7.318;2023-06-10T14:32:16;4.88;;;2.80;;
43124;SDS011;49182;50.788;7.318;2023-06-10T14:34:43;5.72;;;2.90;;
43124;SDS011;49182;50.788;7.318;2023-06-10T14:37:09;6.45;;;3.05;;
43124;SDS011;49182;50.788;7.318;2023-06-10T14:39:36;4.97;;;2.92;;
43124;SDS011;49182;50.788;7.318;2023-06-10T14:42:03;4.50;;;2.60;;
43124;SDS011;49182;50.788;7.318;2023-06-10T14:44:30;7.15;;;2.97;;
43124;SDS011;49182;50.788;7.318;2023-06-10T14:46:56;6.25;;;4.10;;
43124;SDS011;49182;50.788;7.318;2023-06-10T14:49:24;4.68;;;2.92;;
43124;SDS011;49182;50.788;7.318;2023-06-10T14:51:51;4.88;;;2.83;;
43124;SDS011;49182;50.788;7.318;2023-06-10T14:54:18;4.70;;;2.67;;
43124;SDS011;49182;50.788;7.318;2023-06-10T14:56:44;8.30;;;2.67;;
43124;SDS011;49182;50.788;7.318;2023-06-10T14:59:11;3.70;;;2.40;;
43124;SDS011;49182;50.788;7.318;2023-06-10T15:01:37;4.78;;;2.65;;